Time;durP1;ratioP1;P1;durP2;ratioP2;P2;SDS_P1;SDS_P2;PMS_P1;PMS_P2;Temp;Humidity;BMP_temperature;BMP_pressure;BME280_temperature;BME280_humidity;BME280_pressure;Samples;Min_cycle;Max_cycle;Signal;HPM_P1;HPM_P2
2022/03/17 00:02:09;;;;;;;31.77;25.98;;;28.20;81.20;;;;;;5084050;28;20056;-55
2022/03/17 00:04:36;;;;;;;32.70;24.90;;;28.10;81.10;;;;;;5084658;28;20058;-51
2022/03/17 00:07:02;;;;;;;30.33;24.35;;;28.20;81.20;;;;;;5084807;28;20037;-55
2022/03/17 00:09:29;;;;;;;31.40;24.88;;;28.20;81.30;;;;;;5084599;28;20012;-47
2022/03/17 00:11:56;;;;;;;30.52;23.63;;;28.10;81.30;;;;;;5084452;28;20036;-53
2022/03/17 00:14:22;;;;;;;25.88;23.13;;;28.10;81.20;;;;;;5084690;28;20020;-51
2022/03/17 00:16:49;;;;;;;25.85;22.55;;;28.10;81.20;;;;;;5083711;28;20021;-50
2022/03/17 00:19:15;;;;;;;26.92;21.77;;;28.10;81.30;;;;;;5084098;28;20067;-50
2022/03/17 00:21:43;;;;;;;24.35;21.48;;;28.10;81.10;;;;;;5084273;28;20020;-52
2022/03/17 00:24:09;;;;;;;24.10;21.15;;;28.10;80.90;;;;;;5084267;28;20092;-50
2022/03/17 00:26:37;;;;;;;23.17;20.60;;;28.00;80.90;;;;;;5083964;28;20009;-54
2022/03/17 00:29:07;;;;;;;45.28;22.42;;;28.00;81.10;;;;;;5084298;28;20029;-52
2022/03/17 00:31:38;;;;;;;33.58;21.67;;;28.00;80.90;;;;;;5084141;28;20275;-50
2022/03/17 00:34:06;;;;;;;24.48;19.75;;;28.00;81.20;;;;;;5083940;28;20024;-52
2022/03/17 00:36:35;;;;;;;25.35;19.20;;;28.00;80.80;;;;;;5083129;28;20071;-50
2022/03/17 00:39:05;;;;;;;23.20;19.30;;;28.00;80.20;;;;;;5084111;28;20027;-55
2022/03/17 00:41:32;;;;;;;22.23;18.75;;;28.00;80.00;;;;;;5082794;28;20254;-53
2022/03/17 00:43:59;;;;;;;22.00;19.65;;;28.00;79.80;;;;;;5083988;28;20047;-52
2022/03/17 00:46:26;;;;;;;22.35;19.08;;;27.90;79.40;;;;;;5083942;28;20016;-51
2022/03/17 00:48:53;;;;;;;26.42;18.42;;;27.90;79.40;;;;;;5083578;28;20220;-48
2022/03/17 00:51:20;;;;;;;22.15;19.25;;;27.90;79.20;;;;;;5084014;28;20017;-50
2022/03/17 00:53:46;;;;;;;26.25;20.33;;;27.90;79.20;;;;;;5084554;28;20089;-49
2022/03/17 00:56:13;;;;;;;26.08;19.63;;;27.80;79.20;;;;;;5083826;28;20032;-48
2022/03/17 00:58:40;;;;;;;22.75;18.95;;;27.90;79.30;;;;;;5084379;28;20021;-47
2022/03/17 01:01:08;;;;;;;23.23;19.75;;;27.80;79.10;;;;;;5083883;28;20070;-52
2022/03/17 01:03:34;;;;;;;22.83;19.85;;;27.80;79.00;;;;;;5083784;28;20028;-47
2022/03/17 01:06:01;;;;;;;22.40;19.17;;;27.80;78.60;;;;;;5083811;28;20100;-48
2022/03/17 01:08:29;;;;;;;25.27;18.83;;;27.80;78.30;;;;;;5084183;28;20095;-49
2022/03/17 01:10:55;;;;;;;23.13;19.00;;;27.80;78.00;;;;;;5083791;28;20013;-48
2022/03/17 01:13:23;;;;;;;21.05;18.88;;;27.80;77.90;;;;;;5084856;28;20032;-50
2022/03/17 01:15:49;;;;;;;22.88;18.45;;;27.80;77.40;;;;;;5083821;28;20208;-54
2022/03/17 01:18:16;;;;;;;23.75;19.05;;;27.80;77.30;;;;;;5083619;28;20332;-48
2022/03/17 01:20:44;;;;;;;22.05;18.35;;;27.70;76.90;;;;;;5083857;28;20040;-49
2022/03/17 01:23:11;;;;;;;22.88;18.42;;;27.70;76.50;;;;;;5084078;28;20028;-50
2022/03/17 01:25:38;;;;;;;20.45;18.23;;;27.70;76.20;;;;;;5083620;28;20198;-48
2022/03/17 01:28:04;;;;;;;21.35;18.15;;;27.70;76.30;;;;;;5084117;28;20082;-49
2022/03/17 01:30:31;;;;;;;21.98;17.50;;;27.70;76.10;;;;;;5087455;28;20012;-49
2022/03/17 01:32:58;;;;;;;20.55;18.38;;;27.70;76.10;;;;;;5087474;28;20047;-47
2022/03/17 01:35:26;;;;;;;20.23;18.13;;;27.70;76.00;;;;;;5087588;28;20017;-45
2022/03/17 01:37:54;;;;;;;21.67;18.88;;;27.70;75.70;;;;;;5087815;28;20039;-49
2022/03/17 01:40:21;;;;;;;20.67;17.80;;;27.70;75.30;;;;;;5087516;28;20096;-46
2022/03/17 01:42:48;;;;;;;20.25;18.15;;;27.70;75.30;;;;;;5087951;28;20024;-51
2022/03/17 01:45:16;;;;;;;21.33;17.65;;;27.70;75.40;;;;;;5087385;28;20033;-50
2022/03/17 01:47:46;;;;;;;30.55;19.67;;;27.70;75.70;;;;;;5086923;28;20134;-50
2022/03/17 01:50:16;;;;;;;29.05;18.65;;;27.70;74.90;;;;;;5087487;28;20032;-50
2022/03/17 01:52:43;;;;;;;28.25;19.23;;;27.70;74.70;;;;;;5086119;28;20046;-53
2022/03/17 01:55:12;;;;;;;21.00;18.73;;;27.70;74.20;;;;;;5087078;28;20025;-54
2022/03/17 01:57:40;;;;;;;26.08;18.98;;;27.60;74.60;;;;;;5087278;28;20029;-57
2022/03/17 02:00:10;;;;;;;23.38;18.30;;;27.60;74.00;;;;;;5087094;28;20038;-50
2022/03/17 02:02:36;;;;;;;27.15;19.48;;;27.60;73.90;;;;;;5086421;28;20071;-54
2022/03/17 02:05:04;;;;;;;31.02;24.70;;;27.60;74.10;;;;;;5087299;28;20023;-53
2022/03/17 02:07:31;;;;;;;24.60;22.17;;;27.70;74.70;;;;;;5087394;28;20032;-52
2022/03/17 02:09:58;;;;;;;22.98;20.63;;;27.60;74.80;;;;;;5085178;28;20027;-51
2022/03/17 02:15:11;;;;;;;22.92;19.98;;;27.70;74.20;;;;;;5086645;28;20051;-56
2022/03/17 02:17:43;;;;;;;26.00;19.45;;;27.70;74.00;;;;;;5086411;28;20044;-51
2022/03/17 02:20:12;;;;;;;23.08;19.23;;;27.70;73.80;;;;;;5086740;28;20355;-51
2022/03/17 02:22:48;;;;;;;24.58;18.95;;;27.70;73.70;;;;;;5086953;28;20082;-51
2022/03/17 02:25:34;;;;;;;20.13;18.10;;;27.70;73.60;;;;;;5086675;28;20071;-51
2022/03/17 02:28:05;;;;;;;23.13;18.67;;;27.70;73.20;;;;;;5086826;28;20035;-51
2022/03/17 02:30:34;;;;;;;23.75;18.52;;;27.70;73.20;;;;;;5086119;28;20032;-56
2022/03/17 02:33:18;;;;;;;19.40;17.48;;;27.80;73.00;;;;;;5086726;28;20292;-51
2022/03/17 02:35:47;;;;;;;21.23;18.90;;;27.80;72.90;;;;;;5086512;28;20044;-49
2022/03/17 02:38:18;;;;;;;20.50;18.42;;;27.80;72.90;;;;;;5086933;28;20327;-51
2022/03/17 02:40:48;;;;;;;20.35;17.98;;;27.80;73.00;;;;;;5086172;28;20033;-50
2022/03/17 02:43:15;;;;;;;20.13;18.02;;;27.80;72.80;;;;;;5086832;28;20314;-51
2022/03/17 02:45:43;;;;;;;19.45;17.20;;;27.80;73.10;;;;;;5085945;28;20366;-50
2022/03/17 02:48:10;;;;;;;20.20;18.20;;;27.80;72.40;;;;;;5086771;28;20037;-53
2022/03/17 02:50:37;;;;;;;19.90;17.98;;;27.80;72.30;;;;;;5086124;28;20083;-52
2022/03/17 02:53:08;;;;;;;21.95;17.25;;;27.80;72.30;;;;;;5086615;28;20020;-55
2022/03/17 02:55:38;;;;;;;20.65;16.75;;;27.70;72.50;;;;;;5086138;28;20035;-53
2022/03/17 02:58:07;;;;;;;18.55;16.75;;;27.80;72.50;;;;;;5086086;28;20099;-55
2022/03/17 03:00:35;;;;;;;21.17;17.25;;;27.70;71.80;;;;;;5085916;28;20019;-53
2022/03/17 03:03:02;;;;;;;18.65;16.73;;;27.70;71.60;;;;;;5086559;28;20055;-52
2022/03/17 03:05:29;;;;;;;19.63;17.45;;;27.80;71.70;;;;;;5085922;28;20032;-55
2022/03/17 03:07:55;;;;;;;19.33;17.38;;;27.70;71.80;;;;;;5085642;28;20290;-55
2022/03/17 03:10:26;;;;;;;20.10;18.00;;;27.70;71.60;;;;;;5086269;28;20027;-53
2022/03/17 03:12:52;;;;;;;20.90;18.75;;;27.70;71.50;;;;;;5086465;28;20032;-53
2022/03/17 03:15:20;;;;;;;20.40;18.27;;;27.70;71.30;;;;;;5085546;28;20084;-55
2022/03/17 03:17:47;;;;;;;25.15;19.35;;;27.70;71.30;;;;;;5085993;28;20076;-53
2022/03/17 03:20:13;;;;;;;19.77;17.88;;;27.70;71.50;;;;;;5085893;28;20029;-54
2022/03/17 03:22:40;;;;;;;20.38;17.90;;;27.70;71.50;;;;;;5086277;28;20024;-53
2022/03/17 03:25:09;;;;;;;21.60;18.23;;;27.70;71.30;;;;;;5086159;28;20216;-52
2022/03/17 03:27:39;;;;;;;20.67;17.35;;;27.70;72.10;;;;;;5085670;28;20070;-54
2022/03/17 03:30:12;;;;;;;20.42;18.25;;;27.70;72.50;;;;;;5085669;28;20013;-56
2022/03/17 03:32:40;;;;;;;18.95;16.95;;;27.70;72.40;;;;;;5085758;28;20016;-55
2022/03/17 03:37:53;;;;;;;19.85;17.02;;;27.70;72.80;;;;;;5086360;28;20082;-56
2022/03/17 03:40:20;;;;;;;18.38;16.33;;;27.70;73.10;;;;;;5085530;28;20220;-52
2022/03/17 03:42:47;;;;;;;20.58;17.08;;;27.60;73.20;;;;;;5085729;28;20032;-53
2022/03/17 03:45:13;;;;;;;18.90;16.30;;;27.60;73.60;;;;;;5085538;28;20040;-56
2022/03/17 03:47:40;;;;;;;19.77;15.88;;;27.60;73.70;;;;;;5085321;28;20033;-56
2022/03/17 03:50:07;;;;;;;18.95;17.13;;;27.60;74.10;;;;;;5085463;28;20031;-53
2022/03/17 03:52:34;;;;;;;18.08;16.23;;;27.60;74.20;;;;;;5084544;28;20024;-53
2022/03/17 03:55:00;;;;;;;19.40;16.00;;;27.60;74.20;;;;;;5085057;28;20031;-59
2022/03/17 03:57:27;;;;;;;17.98;16.17;;;27.50;74.30;;;;;;5085433;28;20036;-51
2022/03/17 03:59:53;;;;;;;17.98;16.10;;;27.50;74.30;;;;;;5084976;28;20021;-54
2022/03/17 04:02:20;;;;;;;17.85;15.68;;;27.50;74.50;;;;;;5085072;28;20032;-54
2022/03/17 04:04:46;;;;;;;18.20;16.48;;;27.50;74.90;;;;;;5084992;28;20264;-59
2022/03/17 04:07:13;;;;;;;18.00;16.10;;;27.50;74.80;;;;;;5084879;28;20047;-55
2022/03/17 04:09:42;;;;;;;20.15;15.70;;;27.50;75.20;;;;;;5084646;28;20013;-52
2022/03/17 04:12:11;;;;;;;19.70;15.55;;;27.50;75.20;;;;;;5084874;28;20054;-51
2022/03/17 04:14:38;;;;;;;18.20;16.38;;;27.50;75.10;;;;;;5083848;28;20082;-50
2022/03/17 04:17:05;;;;;;;21.17;16.05;;;27.50;75.30;;;;;;5084662;28;20296;-50
2022/03/17 04:19:32;;;;;;;18.83;16.23;;;27.50;75.60;;;;;;5084517;28;20044;-52
2022/03/17 04:21:59;;;;;;;17.83;15.90;;;27.40;75.70;;;;;;5084596;28;20307;-54
2022/03/17 04:24:26;;;;;;;17.83;15.98;;;27.50;75.70;;;;;;5084461;28;20025;-50
2022/03/17 04:26:52;;;;;;;17.77;15.85;;;27.50;75.80;;;;;;5084426;28;20239;-54
2022/03/17 04:29:19;;;;;;;17.98;16.17;;;27.50;75.40;;;;;;5084451;28;20039;-55
2022/03/17 04:31:46;;;;;;;17.90;15.45;;;27.50;75.40;;;;;;5084882;28;20200;-53
2022/03/17 04:34:13;;;;;;;18.60;15.98;;;27.40;75.20;;;;;;5084651;28;20316;-58
2022/03/17 04:36:40;;;;;;;18.65;16.20;;;27.50;75.30;;;;;;5084441;28;20054;-56
2022/03/17 04:39:11;;;;;;;18.13;15.75;;;27.40;75.20;;;;;;5084551;28;20016;-56
2022/03/17 04:41:39;;;;;;;17.75;15.85;;;27.40;75.10;;;;;;5084432;28;20032;-55
2022/03/17 04:44:07;;;;;;;17.52;15.73;;;27.40;75.30;;;;;;5084264;28;20043;-53
2022/03/17 04:46:34;;;;;;;17.23;15.45;;;27.40;75.40;;;;;;5083987;28;20063;-51
2022/03/17 04:49:00;;;;;;;17.45;15.40;;;27.40;75.80;;;;;;5084047;28;20032;-54
2022/03/17 04:51:27;;;;;;;16.73;15.18;;;27.40;75.70;;;;;;5084241;28;20113;-51
2022/03/17 04:53:54;;;;;;;17.25;15.45;;;27.40;75.80;;;;;;5084175;28;20276;-52
2022/03/17 04:56:20;;;;;;;19.95;16.45;;;27.40;76.00;;;;;;5084493;28;20054;-52
2022/03/17 04:58:47;;;;;;;18.17;15.73;;;27.40;75.70;;;;;;5084690;28;20024;-51
2022/03/17 05:01:14;;;;;;;19.50;16.58;;;27.40;75.90;;;;;;5084127;28;20040;-54
2022/03/17 05:03:42;;;;;;;18.65;16.70;;;27.40;75.90;;;;;;5084293;28;20296;-52
2022/03/17 05:06:12;;;;;;;18.30;16.33;;;27.40;75.90;;;;;;5084093;28;20016;-57
2022/03/17 05:08:40;;;;;;;18.60;16.73;;;27.40;76.30;;;;;;5084126;28;20320;-55
2022/03/17 05:11:10;;;;;;;19.25;17.25;;;27.40;76.10;;;;;;5083980;28;20019;-53
2022/03/17 05:13:39;;;;;;;18.83;16.83;;;27.40;76.20;;;;;;5084355;28;20090;-52
2022/03/17 05:16:07;;;;;;;18.65;16.95;;;27.40;76.30;;;;;;5083872;28;20035;-57
2022/03/17 05:18:34;;;;;;;19.65;17.45;;;27.30;76.90;;;;;;5083845;28;20040;-51
2022/03/17 05:21:01;;;;;;;20.80;18.05;;;27.30;77.20;;;;;;5084187;28;20212;-55
2022/03/17 05:23:27;;;;;;;19.90;17.85;;;27.40;77.50;;;;;;5084060;28;20099;-54
2022/03/17 05:25:55;;;;;;;20.95;17.83;;;27.30;77.80;;;;;;5084279;28;20025;-57
2022/03/17 05:28:21;;;;;;;20.63;17.90;;;27.30;78.30;;;;;;5084363;28;20126;-54
2022/03/17 05:30:48;;;;;;;19.55;17.55;;;27.30;78.50;;;;;;5083610;28;20026;-53
2022/03/17 05:33:14;;;;;;;20.48;18.48;;;27.30;78.80;;;;;;5084122;28;20046;-52
2022/03/17 05:35:43;;;;;;;20.13;18.05;;;27.30;78.90;;;;;;5083772;28;20021;-59
2022/03/17 05:38:10;;;;;;;20.38;18.38;;;27.30;79.20;;;;;;5084118;28;20040;-51
2022/03/17 05:40:37;;;;;;;20.15;18.05;;;27.30;79.50;;;;;;5083631;28;20020;-56
2022/03/17 05:43:08;;;;;;;20.20;18.10;;;27.30;79.60;;;;;;5084117;28;20062;-55
2022/03/17 05:45:35;;;;;;;20.50;18.35;;;27.30;79.70;;;;;;5083438;28;20036;-56
2022/03/17 05:48:05;;;;;;;20.90;18.67;;;27.30;80.40;;;;;;5083734;28;20182;-54
2022/03/17 05:50:40;;;;;;;22.40;19.50;;;27.20;80.40;;;;;;5083682;28;20024;-54
2022/03/17 05:53:08;;;;;;;21.90;19.70;;;27.20;80.70;;;;;;5083768;28;20082;-52
2022/03/17 05:55:35;;;;;;;21.42;19.13;;;27.20;81.00;;;;;;5083972;28;20127;-52
2022/03/17 05:58:02;;;;;;;20.75;18.58;;;27.20;81.20;;;;;;5083897;28;20319;-53
2022/03/17 06:00:30;;;;;;;21.48;19.25;;;27.30;81.20;;;;;;5083311;28;20036;-55
2022/03/17 06:02:58;;;;;;;23.63;19.58;;;27.20;81.30;;;;;;5083792;28;20096;-51
2022/03/17 06:05:26;;;;;;;22.58;20.27;;;27.20;81.80;;;;;;5083341;28;20185;-56
2022/03/17 06:07:55;;;;;;;24.75;19.50;;;27.20;81.80;;;;;;5083471;28;20292;-53
2022/03/17 06:10:24;;;;;;;22.48;20.05;;;27.20;82.10;;;;;;5083363;28;20208;-54
2022/03/17 06:12:53;;;;;;;23.30;19.85;;;27.10;82.40;;;;;;5083197;28;20020;-52
2022/03/17 06:15:21;;;;;;;21.92;19.63;;;27.10;82.50;;;;;;5084787;28;20039;-51
2022/03/17 06:17:52;;;;;;;21.08;18.98;;;27.10;82.40;;;;;;5086855;28;20071;-51
2022/03/17 06:20:21;;;;;;;22.33;20.00;;;27.10;82.50;;;;;;5086845;28;20040;-54
2022/03/17 06:22:49;;;;;;;23.50;20.10;;;27.10;82.40;;;;;;5086936;28;20032;-54
2022/03/17 06:25:18;;;;;;;21.95;19.75;;;27.10;82.60;;;;;;5086900;28;20061;-55
2022/03/17 06:27:45;;;;;;;22.48;20.08;;;27.10;82.50;;;;;;5087118;28;20096;-55
2022/03/17 06:30:20;;;;;;;23.23;20.05;;;27.10;82.60;;;;;;5087205;28;20044;-54
2022/03/17 06:32:47;;;;;;;23.45;19.80;;;27.10;82.60;;;;;;5087047;28;20040;-56
2022/03/17 06:35:17;;;;;;;26.88;19.88;;;27.10;82.50;;;;;;5086800;28;20245;-51
2022/03/17 06:37:48;;;;;;;22.92;19.00;;;27.10;82.30;;;;;;5087352;28;20043;-53
2022/03/17 06:40:17;;;;;;;21.60;19.40;;;27.10;82.30;;;;;;5086450;28;20016;-50
2022/03/17 06:42:44;;;;;;;23.23;19.73;;;27.00;82.20;;;;;;5087088;28;20036;-51
2022/03/17 06:45:11;;;;;;;21.70;19.35;;;27.00;82.10;;;;;;5086654;28;20079;-53
2022/03/17 06:47:39;;;;;;;27.63;19.45;;;27.00;82.00;;;;;;5086319;28;20055;-52
2022/03/17 06:50:07;;;;;;;23.10;19.73;;;27.00;82.00;;;;;;5086479;28;20182;-53
2022/03/17 06:52:33;;;;;;;20.80;18.33;;;27.10;81.50;;;;;;5086733;28;20058;-51
2022/03/17 06:55:00;;;;;;;21.55;18.23;;;27.10;81.00;;;;;;5086137;28;20016;-54
2022/03/17 06:57:27;;;;;;;24.45;17.70;;;27.00;80.60;;;;;;5086605;28;20321;-54
2022/03/17 06:59:54;;;;;;;23.83;18.00;;;27.00;80.20;;;;;;5086432;28;20025;-54
2022/03/17 07:02:22;;;;;;;20.33;18.23;;;27.10;79.90;;;;;;5086339;28;20032;-60
2022/03/17 07:04:48;;;;;;;20.60;18.52;;;27.00;79.80;;;;;;5085999;28;20032;-54
2022/03/17 07:07:15;;;;;;;20.70;17.63;;;27.10;79.50;;;;;;5086559;28;20029;-52
2022/03/17 07:09:41;;;;;;;21.40;18.50;;;27.00;79.20;;;;;;5085890;28;20265;-53
2022/03/17 07:12:10;;;;;;;23.02;17.95;;;27.10;79.10;;;;;;5086137;28;20066;-53
2022/03/17 07:14:37;;;;;;;20.23;18.20;;;27.10;79.20;;;;;;5085801;28;20012;-55
2022/03/17 07:17:04;;;;;;;19.63;17.52;;;27.10;79.00;;;;;;5086310;28;20230;-59
2022/03/17 07:19:30;;;;;;;20.08;17.92;;;27.10;78.90;;;;;;5085930;28;20052;-52
2022/03/17 07:21:57;;;;;;;20.15;17.00;;;27.20;78.40;;;;;;5086144;28;20075;-53
2022/03/17 07:24:24;;;;;;;19.33;17.17;;;27.10;78.30;;;;;;5086099;28;20224;-56
2022/03/17 07:26:50;;;;;;;21.10;17.27;;;27.10;78.20;;;;;;5086055;28;20028;-52
2022/03/17 07:29:17;;;;;;;19.50;17.45;;;27.10;78.10;;;;;;5085532;28;20031;-53
2022/03/17 07:31:44;;;;;;;22.58;16.70;;;27.10;78.20;;;;;;5085510;28;20051;-58
2022/03/17 07:34:11;;;;;;;19.92;17.80;;;27.10;78.10;;;;;;5085956;28;20236;-53
2022/03/17 07:36:37;;;;;;;18.48;16.75;;;27.00;77.80;;;;;;5085660;28;20039;-52
2022/03/17 07:39:06;;;;;;;24.15;17.48;;;27.00;78.00;;;;;;5085280;28;20087;-54
2022/03/17 07:41:32;;;;;;;21.25;17.95;;;27.00;78.00;;;;;;5085618;28;20038;-57
2022/03/17 07:44:00;;;;;;;19.73;17.33;;;27.00;78.00;;;;;;5085459;28;20044;-53
2022/03/17 07:46:27;;;;;;;18.98;16.98;;;27.00;78.40;;;;;;5085184;28;20300;-57
2022/03/17 07:48:53;;;;;;;24.77;17.70;;;27.00;78.60;;;;;;5085138;28;20220;-53
2022/03/17 07:51:20;;;;;;;25.83;17.05;;;27.00;78.40;;;;;;5085206;28;20013;-53
2022/03/17 07:53:47;;;;;;;19.10;17.15;;;27.00;78.20;;;;;;5085878;28;20252;-55
2022/03/17 07:56:14;;;;;;;19.33;17.05;;;27.00;78.20;;;;;;5085328;28;20099;-53
2022/03/17 07:58:41;;;;;;;20.02;16.98;;;27.00;77.90;;;;;;5085690;28;20320;-53
2022/03/17 08:01:08;;;;;;;21.13;18.05;;;27.00;78.00;;;;;;5085285;28;20031;-52
2022/03/17 08:03:34;;;;;;;19.92;17.00;;;27.00;77.90;;;;;;5085259;28;20028;-54
2022/03/17 08:06:01;;;;;;;19.83;17.02;;;27.00;78.20;;;;;;5085012;28;20075;-55
2022/03/17 08:08:27;;;;;;;19.83;17.73;;;27.00;78.20;;;;;;5085041;28;20104;-56
2022/03/17 08:10:54;;;;;;;20.48;18.15;;;27.00;78.30;;;;;;5084833;28;20223;-57
2022/03/17 08:13:22;;;;;;;19.15;17.33;;;27.00;78.30;;;;;;5085626;28;20039;-54
2022/03/17 08:15:48;;;;;;;19.50;17.42;;;26.90;78.40;;;;;;5084612;28;20016;-51
2022/03/17 08:18:15;;;;;;;20.88;17.88;;;26.90;78.60;;;;;;5084473;28;20066;-55
2022/03/17 08:20:42;;;;;;;23.77;17.05;;;26.90;78.50;;;;;;5084593;28;20036;-54
2022/03/17 08:23:09;;;;;;;22.33;17.40;;;26.90;78.70;;;;;;5085124;28;20029;-54
2022/03/17 08:25:36;;;;;;;19.27;17.20;;;26.90;79.00;;;;;;5084336;28;20032;-55
2022/03/17 08:28:04;;;;;;;22.65;17.58;;;26.90;78.90;;;;;;5084854;28;20052;-52
2022/03/17 08:30:37;;;;;;;20.63;16.92;;;26.90;78.80;;;;;;5084456;28;20079;-52
2022/03/17 08:33:04;;;;;;;24.13;17.85;;;26.90;78.90;;;;;;5085002;28;20036;-54
2022/03/17 08:35:31;;;;;;;20.58;17.50;;;26.90;79.00;;;;;;5084545;28;20020;-55
2022/03/17 08:37:57;;;;;;;18.70;16.80;;;26.90;79.00;;;;;;5084637;28;20040;-51
2022/03/17 08:40:24;;;;;;;19.58;17.58;;;26.90;79.00;;;;;;5084609;28;20074;-53
2022/03/17 08:42:51;;;;;;;20.25;17.23;;;26.90;79.10;;;;;;5084241;28;20059;-60
2022/03/17 08:50:48;;;;;;;30.58;18.58;;;26.90;80.00;;;;;;5084063;28;20035;-51
2022/03/17 08:53:15;;;;;;;24.08;18.77;;;26.90;81.00;;;;;;5085094;28;20035;-52
2022/03/17 08:55:42;;;;;;;24.08;19.38;;;26.90;82.00;;;;;;5084269;28;20249;-56
2022/03/17 08:58:09;;;;;;;24.58;18.83;;;26.90;82.50;;;;;;5084342;28;20024;-53
2022/03/17 09:00:36;;;;;;;25.10;20.25;;;26.80;82.90;;;;;;5084022;28;20193;-53
2022/03/17 09:03:03;;;;;;;29.33;21.05;;;26.80;83.40;;;;;;5084573;28;20103;-52
2022/03/17 09:05:32;;;;;;;33.08;22.02;;;26.80;84.40;;;;;;5084349;28;20059;-56
2022/03/17 09:08:08;;;;;;;28.35;20.83;;;26.70;84.80;;;;;;5084443;28;20092;-53
2022/03/17 09:10:36;;;;;;;28.77;21.55;;;26.70;85.40;;;;;;5084308;28;20263;-52
2022/03/17 09:13:07;;;;;;;28.23;21.95;;;26.70;85.50;;;;;;5084107;28;20038;-52
2022/03/17 09:15:38;;;;;;;25.45;20.25;;;26.70;85.60;;;;;;5084204;28;20035;-52
2022/03/17 09:18:08;;;;;;;25.25;21.05;;;26.60;85.60;;;;;;5084104;28;20363;-53
2022/03/17 09:20:36;;;;;;;27.83;21.33;;;26.60;85.60;;;;;;5084454;28;20017;-57
2022/03/17 09:23:02;;;;;;;25.90;20.75;;;26.60;86.20;;;;;;5084198;28;20365;-58
2022/03/17 09:25:30;;;;;;;28.10;20.27;;;26.60;85.70;;;;;;5083935;28;20087;-56
2022/03/17 09:27:57;;;;;;;27.05;20.60;;;26.60;85.60;;;;;;5083872;28;20024;-56
2022/03/17 09:30:24;;;;;;;25.77;21.38;;;26.70;85.40;;;;;;5083701;28;20039;-53
2022/03/17 09:32:54;;;;;;;28.65;21.58;;;26.60;85.40;;;;;;5083883;28;20044;-52
2022/03/17 09:35:22;;;;;;;23.13;20.83;;;26.60;86.00;;;;;;5083655;28;20020;-53
2022/03/17 09:37:50;;;;;;;22.95;20.60;;;26.60;86.30;;;;;;5083861;28;20095;-54
2022/03/17 09:40:17;;;;;;;35.13;21.55;;;26.60;86.30;;;;;;5083521;28;20399;-55
2022/03/17 09:42:43;;;;;;;30.70;20.65;;;26.50;86.20;;;;;;5083817;28;20243;-52
2022/03/17 09:45:11;;;;;;;25.38;21.02;;;26.50;86.20;;;;;;5083789;28;20024;-56
2022/03/17 09:47:44;;;;;;;26.15;20.88;;;26.50;86.50;;;;;;5083523;28;20224;-50
2022/03/17 09:50:15;;;;;;;25.88;21.33;;;26.50;86.70;;;;;;5084995;28;20200;-51
2022/03/17 09:52:44;;;;;;;24.17;21.30;;;26.40;86.70;;;;;;5087795;28;20040;-55
2022/03/17 09:55:12;;;;;;;25.40;21.40;;;26.40;86.50;;;;;;5087533;28;20012;-54
2022/03/17 09:57:42;;;;;;;23.00;20.52;;;26.40;86.30;;;;;;5087547;28;20086;-51
2022/03/17 10:00:12;;;;;;;25.15;20.50;;;26.40;86.50;;;;;;5087164;28;20328;-53
2022/03/17 10:02:39;;;;;;;23.42;20.00;;;26.40;86.40;;;;;;5087622;28;20036;-55
2022/03/17 10:05:11;;;;;;;22.38;20.05;;;26.40;86.40;;;;;;5087243;28;20082;-51
2022/03/17 10:07:39;;;;;;;27.38;19.70;;;26.40;86.60;;;;;;5086996;28;20032;-53
2022/03/17 10:10:06;;;;;;;26.33;20.75;;;26.30;86.70;;;;;;5087137;28;20032;-53
2022/03/17 10:12:33;;;;;;;24.52;20.17;;;26.30;86.50;;;;;;5087086;28;20032;-53
2022/03/17 10:15:01;;;;;;;23.10;20.25;;;26.30;86.70;;;;;;5086971;28;20091;-51
2022/03/17 10:17:38;;;;;;;25.00;20.55;;;26.30;87.00;;;;;;5086848;28;20028;-55
2022/03/17 10:20:14;;;;;;;24.50;20.52;;;26.30;87.10;;;;;;5086954;28;20328;-56
2022/03/17 10:22:42;;;;;;;25.63;21.42;;;26.40;87.10;;;;;;5087138;28;20036;-51
2022/03/17 10:25:12;;;;;;;24.08;20.98;;;26.30;87.10;;;;;;5086587;28;20037;-54
2022/03/17 10:27:45;;;;;;;24.30;20.52;;;26.30;87.10;;;;;;5085470;28;20055;-52
2022/03/17 10:30:13;;;;;;;22.63;20.23;;;26.30;86.90;;;;;;5086718;28;20040;-54
2022/03/17 10:32:40;;;;;;;22.73;20.23;;;26.30;86.80;;;;;;5086840;28;20031;-55
2022/03/17 10:35:08;;;;;;;22.70;20.38;;;26.40;86.60;;;;;;5086615;28;20093;-53
2022/03/17 10:37:38;;;;;;;22.42;20.02;;;26.30;86.50;;;;;;5086775;28;20036;-54
2022/03/17 10:40:10;;;;;;;22.00;19.48;;;26.30;86.40;;;;;;5086512;28;20077;-54
2022/03/17 10:42:38;;;;;;;24.48;19.63;;;26.30;86.40;;;;;;5086581;28;20040;-55
2022/03/17 10:45:06;;;;;;;26.30;20.75;;;26.30;86.20;;;;;;5086796;28;20048;-51
2022/03/17 10:47:39;;;;;;;21.85;19.45;;;26.30;86.00;;;;;;5086517;28;20193;-51
2022/03/17 10:50:11;;;;;;;21.42;19.23;;;26.30;86.00;;;;;;5086838;28;20029;-53
2022/03/17 10:52:56;;;;;;;21.33;18.90;;;26.30;85.90;;;;;;5086722;28;20067;-55
2022/03/17 10:55:27;;;;;;;21.13;18.95;;;26.30;85.60;;;;;;5086321;28;20020;-53
2022/03/17 10:58:16;;;;;;;25.13;18.40;;;26.30;85.60;;;;;;5086232;28;20101;-56
2022/03/17 11:00:53;;;;;;;22.67;18.75;;;26.30;85.50;;;;;;5085838;28;20267;-55
2022/03/17 11:03:21;;;;;;;20.13;18.02;;;26.30;85.50;;;;;;5086325;28;20041;-52
2022/03/17 11:05:53;;;;;;;21.90;17.33;;;26.30;85.50;;;;;;5086017;28;20022;-54
2022/03/17 11:08:24;;;;;;;20.07;17.53;;;26.30;85.60;;;;;;5086238;28;20074;-54
2022/03/17 11:10:50;;;;;;;23.67;18.58;;;26.30;85.60;;;;;;5086089;28;20360;-52
2022/03/17 11:13:17;;;;;;;21.50;19.27;;;26.30;85.70;;;;;;5086524;28;20097;-54
2022/03/17 11:15:56;;;;;;;22.45;17.95;;;26.30;85.70;;;;;;5086440;28;20012;-52
2022/03/17 11:18:24;;;;;;;21.02;18.85;;;26.30;85.70;;;;;;5085901;28;20234;-51
2022/03/17 11:21:19;;;;;;;23.85;19.17;;;26.30;85.70;;;;;;5085991;28;20028;-51
2022/03/17 11:24:07;;;;;;;24.95;19.40;;;26.30;85.80;;;;;;5086432;28;20039;-54
2022/03/17 11:26:37;;;;;;;23.13;18.90;;;26.40;86.40;;;;;;5085486;28;20077;-49
2022/03/17 11:29:18;;;;;;;21.52;19.35;;;26.30;86.50;;;;;;5085575;28;20036;-53
2022/03/17 11:31:57;;;;;;;24.48;19.25;;;26.30;86.80;;;;;;5085609;28;20062;-51
2022/03/17 11:35:04;;;;;;;23.95;20.48;;;26.40;86.80;;;;;;5085618;28;20039;-48
2022/03/17 11:37:32;;;;;;;26.52;19.55;;;26.40;86.80;;;;;;5075926;28;20068;-51
2022/03/17 11:40:10;;;;;;;23.40;20.02;;;26.40;87.00;;;;;;5084370;28;20055;-52
2022/03/17 11:42:52;;;;;;;23.70;19.85;;;26.40;87.20;;;;;;5084066;28;20043;-54
2022/03/17 11:45:19;;;;;;;23.83;19.05;;;26.40;87.10;;;;;;5083766;28;20092;-50
2022/03/17 11:47:53;;;;;;;23.08;20.55;;;26.40;87.10;;;;;;5083325;28;20039;-49
2022/03/17 11:50:28;;;;;;;23.50;19.67;;;26.40;87.10;;;;;;5083822;28;20020;-50
2022/03/17 11:53:04;;;;;;;21.30;18.95;;;26.40;87.10;;;;;;5084443;28;20066;-52
2022/03/17 11:55:43;;;;;;;24.00;19.13;;;26.40;87.10;;;;;;5085255;28;20048;-51
2022/03/17 11:58:46;;;;;;;23.15;18.95;;;26.40;86.90;;;;;;5085817;28;20082;-53
2022/03/17 12:01:34;;;;;;;20.23;18.15;;;26.40;86.80;;;;;;5085332;28;20043;-50
2022/03/17 12:04:04;;;;;;;21.17;17.65;;;26.50;86.40;;;;;;5085379;28;20040;-50
2022/03/17 12:06:32;;;;;;;22.42;16.35;;;26.50;86.10;;;;;;5085019;28;20079;-47
2022/03/17 12:09:09;;;;;;;19.45;17.33;;;26.50;85.80;;;;;;5084818;28;20038;-50
2022/03/17 12:11:47;;;;;;;19.25;16.85;;;26.50;85.90;;;;;;5084702;28;20083;-51
2022/03/17 12:14:17;;;;;;;19.13;17.10;;;26.50;85.60;;;;;;5084357;28;20291;-51
2022/03/17 12:16:48;;;;;;;17.98;15.98;;;26.50;85.50;;;;;;5084849;28;20028;-51
2022/03/17 12:19:48;;;;;;;18.42;16.58;;;26.50;85.50;;;;;;5084471;28;20056;-49
2022/03/17 12:22:18;;;;;;;19.98;16.58;;;26.40;85.10;;;;;;5070492;28;20040;-51
2022/03/17 12:25:23;;;;;;;22.52;18.40;;;26.50;85.30;;;;;;5084463;28;20017;-49
2022/03/17 12:27:59;;;;;;;23.65;18.90;;;26.40;85.00;;;;;;5084583;28;20093;-52
2022/03/17 12:30:27;;;;;;;24.88;19.83;;;26.40;85.30;;;;;;5084906;28;20016;-50
2022/03/17 12:32:58;;;;;;;20.98;18.38;;;26.40;85.20;;;;;;5084847;28;20036;-49
2022/03/17 12:35:34;;;;;;;19.70;17.30;;;26.40;84.90;;;;;;5084648;28;20017;-52
2022/03/17 12:38:08;;;;;;;20.23;18.13;;;26.50;84.90;;;;;;5084768;28;20077;-52
2022/03/17 12:40:44;;;;;;;25.67;19.23;;;26.50;85.00;;;;;;5084536;28;20127;-52
2022/03/17 12:43:15;;;;;;;22.92;20.05;;;26.50;84.90;;;;;;5084368;28;20328;-54
2022/03/17 12:45:47;;;;;;;20.73;18.63;;;26.50;85.10;;;;;;5084644;28;20050;-50
2022/03/17 12:48:14;;;;;;;22.27;18.27;;;26.50;85.20;;;;;;5084603;28;20324;-50
2022/03/17 12:50:41;;;;;;;22.30;18.15;;;26.50;85.10;;;;;;5084224;28;20306;-50